Time;durP1;ratioP1;P1;durP2;ratioP2;P2;SDS_P1;SDS_P2;PMS_P1;PMS_P2;Temp;Humidity;BMP_temperature;BMP_pressure;BME280_temperature;BME280_humidity;BME280_pressure;Samples;Min_cycle;Max_cycle;Signal;HPM_P1;HPM_P2
2022/02/15 00:00:00;;;;;;;116.47;89.43;;;;;;;-2.92;100.00;101751.06;5109752;28;20101;-79
2022/02/15 00:02:27;;;;;;;94.50;78.22;;;;;;;-3.59;100.00;101739.47;5103659;28;20472;-81
2022/02/15 00:04:53;;;;;;;114.68;88.63;;;;;;;-3.71;100.00;101743.63;5108118;28;20419;-79
2022/02/15 00:07:20;;;;;;;109.72;76.95;;;;;;;-3.24;100.00;101746.03;5108368;28;20047;-80
2022/02/15 00:09:47;;;;;;;87.38;77.82;;;;;;;-3.15;100.00;101749.00;5106984;28;20105;-79
2022/02/15 00:12:15;;;;;;;76.18;68.78;;;;;;;-3.11;100.00;101755.69;5107926;28;20059;-81
2022/02/15 00:14:42;;;;;;;70.25;63.03;;;;;;;-2.72;100.00;101762.00;5116925;28;20120;-79
2022/02/15 00:17:08;;;;;;;61.85;55.63;;;;;;;-2.93;100.00;101758.97;5111525;28;20051;-79
2022/02/15 00:19:35;;;;;;;64.97;58.53;;;;;;;-2.81;100.00;101748.66;5102159;28;20109;-79
2022/02/15 00:22:02;;;;;;;63.15;57.20;;;;;;;-2.94;100.00;101750.31;5114585;28;20055;-79
2022/02/15 00:24:29;;;;;;;64.80;58.75;;;;;;;-2.79;100.00;101749.38;5107441;28;20474;-79
2022/02/15 00:26:55;;;;;;;65.30;59.33;;;;;;;-2.69;100.00;101754.88;5112273;28;20048;-80
2022/02/15 00:29:23;;;;;;;61.42;55.63;;;;;;;-2.64;100.00;101747.59;5105571;28;20044;-80
2022/02/15 00:31:50;;;;;;;69.03;63.03;;;;;;;-2.93;100.00;101745.97;5107598;28;20111;-79
2022/02/15 00:34:17;;;;;;;65.25;59.00;;;;;;;-3.09;100.00;101749.47;5105237;28;20112;-79
2022/02/15 00:36:44;;;;;;;69.72;63.65;;;;;;;-2.98;100.00;101753.19;5103390;28;20723;-82
2022/02/15 00:39:11;;;;;;;78.75;71.75;;;;;;;-2.95;100.00;101743.44;5111783;28;20047;-82
2022/02/15 00:41:38;;;;;;;67.38;60.58;;;;;;;-3.00;100.00;101745.47;5104391;28;20047;-80
2022/02/15 00:44:04;;;;;;;76.07;68.85;;;;;;;-2.75;100.00;101744.84;5102253;28;20051;-79
2022/02/15 00:46:33;;;;;;;77.72;71.15;;;;;;;-2.92;100.00;101743.25;5105575;28;20104;-81
2022/02/15 00:48:59;;;;;;;76.18;69.65;;;;;;;-2.92;100.00;101739.81;5106527;28;20092;-79
2022/02/15 00:51:26;;;;;;;76.28;68.80;;;;;;;-3.07;100.00;101736.38;5107161;28;20047;-79
2022/02/15 00:53:53;;;;;;;74.78;64.72;;;;;;;-3.64;100.00;101738.91;5102619;28;20430;-81
2022/02/15 00:56:21;;;;;;;77.40;69.20;;;;;;;-3.16;100.00;101747.34;5106211;28;20047;-81
2022/02/15 00:58:47;;;;;;;83.65;74.70;;;;;;;-3.04;100.00;101744.00;5106332;28;20437;-80
2022/02/15 01:01:14;;;;;;;72.00;64.05;;;;;;;-3.38;100.00;101737.41;5110492;28;20051;-79
2022/02/15 01:03:42;;;;;;;73.68;65.70;;;;;;;-3.12;100.00;101734.06;5102906;28;20040;-80
2022/02/15 01:06:16;;;;;;;83.65;68.18;;;;;;;-3.32;100.00;101739.63;5108678;28;20040;-79
2022/02/15 01:08:45;;;;;;;81.70;70.18;;;;;;;-3.15;100.00;101729.03;5108378;28;20123;-79
2022/02/15 01:11:12;;;;;;;80.20;69.45;;;;;;;-3.04;100.00;101731.00;5105218;28;20117;-79
2022/02/15 01:13:38;;;;;;;82.85;69.70;;;;;;;-3.13;100.00;101736.75;5113177;28;20051;-81
2022/02/15 01:16:07;;;;;;;94.15;74.88;;;;;;;-3.19;100.00;101731.94;5111215;28;20433;-81
2022/02/15 01:18:33;;;;;;;81.97;70.78;;;;;;;-3.16;100.00;101729.97;5107576;28;20124;-79
2022/02/15 01:21:08;;;;;;;85.15;72.25;;;;;;;-3.11;100.00;101721.91;5106169;28;20039;-80
2022/02/15 01:23:35;;;;;;;83.57;74.78;;;;;;;-3.07;100.00;101726.81;5112298;28;20120;-80
2022/02/15 01:26:02;;;;;;;79.70;71.18;;;;;;;-3.35;100.00;101725.06;5108745;28;20117;-79
2022/02/15 01:28:28;;;;;;;78.90;68.78;;;;;;;-3.20;100.00;101720.69;5108455;28;20101;-81
2022/02/15 01:30:55;;;;;;;80.55;72.15;;;;;;;-3.34;100.00;101713.72;5107799;28;20058;-80
2022/02/15 01:33:22;;;;;;;97.25;81.15;;;;;;;-3.33;100.00;101709.34;5102683;28;20075;-79
2022/02/15 01:35:49;;;;;;;85.90;76.68;;;;;;;-3.31;100.00;101708.34;5109807;28;20048;-81
2022/02/15 01:38:17;;;;;;;77.85;69.80;;;;;;;-3.56;100.00;101708.13;5108307;28;20469;-81
2022/02/15 01:40:44;;;;;;;75.07;67.63;;;;;;;-4.11;100.00;101706.09;5103278;28;20048;-81
2022/02/15 01:43:11;;;;;;;72.55;65.22;;;;;;;-3.76;100.00;101711.88;5103175;28;20173;-81
2022/02/15 01:45:37;;;;;;;84.75;76.30;;;;;;;-4.02;100.00;101714.22;5102773;28;20109;-80
2022/02/15 01:48:06;;;;;;;77.28;68.88;;;;;;;-3.77;100.00;101712.81;5107130;28;20055;-79
2022/02/15 01:50:32;;;;;;;81.85;65.97;;;;;;;-3.67;100.00;101711.34;5109351;28;20422;-80
2022/02/15 01:52:59;;;;;;;85.10;71.22;;;;;;;-3.74;100.00;101723.03;5107801;28;20044;-81
2022/02/15 01:55:27;;;;;;;93.53;75.75;;;;;;;-3.75;100.00;101714.41;5102136;28;20454;-82
2022/02/15 01:57:54;;;;;;;98.13;74.85;;;;;;;-3.99;100.00;101715.81;5102392;28;20051;-79
2022/02/15 02:00:22;;;;;;;94.88;73.43;;;;;;;-4.03;100.00;101709.94;5112619;28;20774;-81
2022/02/15 02:02:49;;;;;;;105.40;87.43;;;;;;;-3.98;100.00;101709.69;5106387;28;20497;-80
2022/02/15 02:08:03;;;;;;;91.57;74.82;;;;;;;-3.96;100.00;101716.47;5105210;28;20051;-78
2022/02/15 02:10:31;;;;;;;75.20;64.82;;;;;;;-3.86;100.00;101715.94;5102644;28;20047;-82
2022/02/15 02:12:58;;;;;;;78.57;66.15;;;;;;;-3.82;100.00;101705.28;5106780;28;20055;-80
2022/02/15 02:15:26;;;;;;;74.22;66.63;;;;;;;-3.92;100.00;101698.97;5107161;28;20108;-80
2022/02/15 02:17:53;;;;;;;71.18;63.63;;;;;;;-3.89;100.00;101693.59;5103589;28;20083;-79
2022/02/15 02:20:21;;;;;;;74.18;66.28;;;;;;;-4.00;100.00;101686.41;5109931;28;20055;-80
2022/02/15 02:22:49;;;;;;;72.40;64.47;;;;;;;-4.33;100.00;101683.13;5110988;28;20051;-81
2022/02/15 02:25:18;;;;;;;89.13;73.25;;;;;;;-4.23;100.00;101677.34;5105574;28;20479;-80
2022/02/15 02:27:45;;;;;;;82.35;73.57;;;;;;;-4.48;100.00;101674.44;5105325;28;20482;-79
2022/02/15 02:30:13;;;;;;;79.78;71.28;;;;;;;-4.46;100.00;101678.63;5107308;28;20496;-81
2022/02/15 02:32:40;;;;;;;71.10;63.65;;;;;;;-4.30;100.00;101676.00;5104854;28;20109;-79
2022/02/15 02:35:08;;;;;;;88.90;71.28;;;;;;;-4.48;100.00;101682.22;5108332;28;20078;-79
2022/02/15 02:37:36;;;;;;;79.55;67.43;;;;;;;-4.28;100.00;101679.38;5098680;28;20141;-79
2022/02/15 02:40:07;;;;;;;85.53;76.22;;;;;;;-4.09;100.00;101680.91;5103939;28;20052;-79
2022/02/15 02:42:38;;;;;;;70.78;63.50;;;;;;;-4.07;100.00;101674.72;5109384;28;20475;-80
2022/02/15 02:45:07;;;;;;;68.13;60.63;;;;;;;-4.07;100.00;101664.34;5112808;28;20047;-79
2022/02/15 02:47:34;;;;;;;64.35;57.67;;;;;;;-4.08;100.00;101665.28;5093828;28;20044;-79
2022/02/15 02:50:01;;;;;;;134.40;93.00;;;;;;;-4.01;100.00;101668.34;5106445;28;20048;-81
2022/02/15 02:52:28;;;;;;;95.65;78.03;;;;;;;-3.84;100.00;101673.41;5107419;28;20052;-80
2022/02/15 02:54:55;;;;;;;86.88;73.85;;;;;;;-3.79;100.00;101668.75;5102898;28;20527;-79
2022/02/15 02:57:23;;;;;;;89.07;70.60;;;;;;;-4.13;100.00;101659.50;5107420;28;20044;-78
2022/02/15 02:59:50;;;;;;;80.47;71.90;;;;;;;-4.15;100.00;101659.56;5101799;28;20043;-80
2022/02/15 03:02:17;;;;;;;81.32;73.22;;;;;;;-3.75;100.00;101672.00;5118439;23;20545;-82
2022/02/15 03:04:44;;;;;;;68.65;61.70;;;;;;;-3.96;100.00;101682.72;4984233;28;20453;-81
2022/02/15 03:07:11;;;;;;;65.15;58.85;;;;;;;-3.63;100.00;101688.63;4984205;28;20050;-81
2022/02/15 03:09:38;;;;;;;65.25;59.35;;;;;;;-3.74;100.00;101697.06;4983995;28;20054;-81
2022/02/15 03:12:06;;;;;;;72.30;65.70;;;;;;;-3.52;100.00;101694.88;4981834;28;20120;-81
2022/02/15 03:14:34;;;;;;;84.38;76.05;;;;;;;-3.62;100.00;101693.75;4983217;28;20124;-80
2022/02/15 03:17:01;;;;;;;76.78;69.05;;;;;;;-3.40;100.00;101695.06;4987866;28;20120;-79
2022/02/15 03:19:28;;;;;;;66.93;60.20;;;;;;;-4.24;100.00;101691.22;4986973;28;20046;-80
2022/02/15 03:21:55;;;;;;;75.18;68.35;;;;;;;-3.77;100.00;101699.84;4980766;28;20055;-79
2022/02/15 03:24:21;;;;;;;111.53;85.57;;;;;;;-3.87;100.00;101698.69;4985626;28;20050;-80
2022/02/15 03:26:48;;;;;;;72.30;65.80;;;;;;;-4.40;100.00;101703.41;4985459;28;20482;-80
2022/02/15 03:29:15;;;;;;;73.65;67.00;;;;;;;-4.17;100.00;101704.72;4987401;28;20109;-80
2022/02/15 03:31:44;;;;;;;75.50;68.90;;;;;;;-4.17;100.00;101702.97;4990076;28;20142;-79
2022/02/15 03:34:10;;;;;;;78.97;71.53;;;;;;;-3.99;100.00;101710.63;4987601;28;20113;-81
2022/02/15 03:36:37;;;;;;;94.90;82.75;;;;;;;-3.86;100.00;101705.56;4985965;28;20125;-81
2022/02/15 03:39:05;;;;;;;78.60;70.88;;;;;;;-3.96;100.00;101700.06;4993792;28;20065;-81
2022/02/15 03:44:16;;;;;;;83.10;74.22;;;;;;;-4.37;100.00;101698.88;4989362;28;20137;-79
2022/02/15 03:46:45;;;;;;;94.78;80.38;;;;;;;-4.38;100.00;101702.41;4992651;28;20100;-80
2022/02/15 03:49:12;;;;;;;92.57;74.80;;;;;;;-4.83;100.00;101703.16;4989053;28;20109;-82
2022/02/15 03:51:39;;;;;;;99.88;77.35;;;;;;;-4.43;100.00;101690.59;4990138;28;20114;-80
2022/02/15 03:54:06;;;;;;;89.90;77.47;;;;;;;-4.18;100.00;101680.50;4989050;28;20054;-81
2022/02/15 03:56:33;;;;;;;89.82;79.35;;;;;;;-4.41;100.00;101678.41;4992778;28;20121;-79
2022/02/15 03:59:00;;;;;;;84.88;71.30;;;;;;;-4.65;100.00;101678.00;4990517;28;20046;-82
2022/02/15 04:01:27;;;;;;;89.70;73.10;;;;;;;-4.51;100.00;101674.63;4990488;28;20109;-79
2022/02/15 04:03:55;;;;;;;84.93;72.03;;;;;;;-4.37;100.00;101675.53;4988798;28;20108;-81
2022/02/15 04:06:22;;;;;;;115.60;81.82;;;;;;;-4.56;100.00;101677.47;4993573;28;20042;-80
2022/02/15 04:08:50;;;;;;;103.93;80.95;;;;;;;-5.08;100.00;101685.50;4987513;28;20050;-80
2022/02/15 04:11:17;;;;;;;93.43;73.65;;;;;;;-5.14;100.00;101684.06;4993484;28;20069;-81
2022/02/15 04:13:44;;;;;;;89.03;69.28;;;;;;;-4.95;100.00;101685.66;4991378;28;20050;-79
2022/02/15 04:16:11;;;;;;;89.68;70.97;;;;;;;-4.41;100.00;101681.81;4990650;28;20054;-82
2022/02/15 04:18:43;;;;;;;80.43;70.50;;;;;;;-4.23;100.00;101676.53;4991059;28;20061;-79
2022/02/15 04:21:13;;;;;;;87.78;78.05;;;;;;;-4.42;100.00;101676.69;4977305;28;20117;-80
2022/02/15 04:23:40;;;;;;;89.28;79.13;;;;;;;-4.39;100.00;101656.63;4984386;28;20141;-79
2022/02/15 04:26:07;;;;;;;73.53;65.82;;;;;;;-4.78;100.00;101657.09;4990353;28;20062;-80
2022/02/15 04:28:33;;;;;;;71.45;63.90;;;;;;;-4.86;100.00;101660.09;4989334;28;20149;-80
2022/02/15 04:31:00;;;;;;;67.93;60.50;;;;;;;-4.72;100.00;101674.91;4988634;28;20050;-79
2022/02/15 04:33:27;;;;;;;67.93;61.03;;;;;;;-4.26;100.00;101672.34;4993609;28;20120;-80
2022/02/15 04:35:54;;;;;;;68.07;61.33;;;;;;;-4.41;100.00;101679.22;4988165;28;20047;-81
2022/02/15 04:38:23;;;;;;;64.30;57.67;;;;;;;-4.20;100.00;101684.13;4990950;28;20128;-82
2022/02/15 04:40:50;;;;;;;70.07;63.13;;;;;;;-4.18;100.00;101683.09;4985235;28;20502;-80
2022/02/15 04:43:16;;;;;;;65.43;58.95;;;;;;;-4.45;100.00;101700.22;4992377;28;20114;-81
2022/02/15 04:45:43;;;;;;;67.35;60.47;;;;;;;-4.03;100.00;101694.38;4993442;28;20046;-81
2022/02/15 04:48:10;;;;;;;71.50;63.63;;;;;;;-4.02;100.00;101698.66;4990601;28;20116;-79
2022/02/15 04:50:37;;;;;;;74.50;66.43;;;;;;;-4.26;100.00;101707.84;4989696;28;20111;-80
2022/02/15 04:53:04;;;;;;;68.60;61.38;;;;;;;-4.41;100.00;101709.53;4991107;28;20050;-82
2022/02/15 04:55:32;;;;;;;80.30;72.22;;;;;;;-4.48;100.00;101708.16;4986844;28;20128;-79
2022/02/15 04:57:58;;;;;;;92.15;80.53;;;;;;;-4.36;100.00;101710.06;4984158;28;20054;-82
2022/02/15 05:00:25;;;;;;;70.68;63.75;;;;;;;-4.57;100.00;101708.66;4992982;28;20530;-84
2022/02/15 05:02:53;;;;;;;85.53;68.55;;;;;;;-4.36;100.00;101710.06;4992237;28;20058;-82
2022/02/15 05:05:20;;;;;;;100.45;79.90;;;;;;;-4.19;100.00;101712.56;4990388;28;20190;-81
2022/02/15 05:07:47;;;;;;;76.25;68.30;;;;;;;-4.53;100.00;101720.56;4989953;28;20581;-82
2022/02/15 05:10:13;;;;;;;71.78;64.05;;;;;;;-4.15;100.00;101731.41;4988486;28;20548;-81
2022/02/15 05:12:41;;;;;;;68.95;61.67;;;;;;;-4.56;100.00;101728.50;4985681;28;20050;-82
2022/02/15 05:15:10;;;;;;;69.22;61.80;;;;;;;-4.12;100.00;101743.38;4990416;28;20108;-81
2022/02/15 05:17:37;;;;;;;67.65;60.30;;;;;;;-4.28;100.00;101736.44;4984461;28;20468;-81
2022/02/15 05:20:05;;;;;;;60.40;54.72;;;;;;;-4.43;100.00;101745.91;4987138;28;20405;-81
2022/02/15 05:22:32;;;;;;;64.95;58.20;;;;;;;-4.22;100.00;101754.25;4978341;28;20042;-81
2022/02/15 05:24:59;;;;;;;92.68;77.00;;;;;;;-4.19;100.00;101755.84;4989953;28;20081;-79
2022/02/15 05:27:26;;;;;;;134.38;93.13;;;;;;;-4.32;100.00;101757.47;4984677;28;20522;-79
2022/02/15 05:29:54;;;;;;;148.75;111.13;;;;;;;-4.13;100.00;101771.09;4989398;28;20050;-80
2022/02/15 05:32:21;;;;;;;116.03;85.25;;;;;;;-4.47;100.00;101772.09;4987635;28;20050;-80
2022/02/15 05:34:47;;;;;;;103.45;82.13;;;;;;;-3.99;100.00;101771.16;4990048;28;20065;-79
2022/02/15 05:37:14;;;;;;;97.47;78.30;;;;;;;-3.66;100.00;101766.72;4991715;28;20050;-81
2022/02/15 05:39:41;;;;;;;137.20;102.00;;;;;;;-3.87;100.00;101767.03;4987647;28;20109;-81
2022/02/15 05:42:08;;;;;;;122.18;93.97;;;;;;;-3.73;100.00;101768.84;4984859;28;20050;-81
2022/02/15 05:44:35;;;;;;;107.50;85.13;;;;;;;-3.51;100.00;101766.69;4989307;28;20104;-81
2022/02/15 05:47:03;;;;;;;100.45;82.30;;;;;;;-3.46;100.00;101766.41;4988806;28;20117;-79
2022/02/15 05:49:30;;;;;;;101.72;82.22;;;;;;;-3.25;100.00;101759.94;4990603;28;20050;-80
2022/02/15 05:51:57;;;;;;;104.78;91.75;;;;;;;-3.04;100.00;101751.78;4982156;28;20054;-81
2022/02/15 05:54:24;;;;;;;114.63;94.45;;;;;;;-3.20;100.00;101738.91;4990018;28;20054;-79
2022/02/15 05:56:50;;;;;;;102.30;89.20;;;;;;;-3.04;100.00;101744.00;4984429;28;20057;-81
2022/02/15 05:59:17;;;;;;;103.93;84.20;;;;;;;-3.30;100.00;101738.63;4990124;28;20061;-79
2022/02/15 06:01:44;;;;;;;102.10;90.38;;;;;;;-3.23;100.00;101726.09;4989637;28;20054;-81
2022/02/15 06:04:12;;;;;;;104.13;92.78;;;;;;;-3.19;100.00;101718.94;4989101;28;20125;-79
2022/02/15 06:06:40;;;;;;;95.05;85.10;;;;;;;-3.22;100.00;101702.59;4983614;28;20061;-81
2022/02/15 06:09:07;;;;;;;95.25;84.88;;;;;;;-3.65;100.00;101727.69;4988527;28;20042;-79
2022/02/15 06:11:34;;;;;;;107.95;91.30;;;;;;;-3.45;100.00;101760.28;4993042;28;20071;-80
2022/02/15 06:14:01;;;;;;;85.88;77.57;;;;;;;-2.72;100.00;101778.47;4992444;28;20563;-80
2022/02/15 06:16:28;;;;;;;88.88;80.10;;;;;;;-2.91;100.00;101770.91;4992737;28;20462;-81
2022/02/15 06:18:56;;;;;;;88.40;79.80;;;;;;;-2.61;100.00;101767.38;4993076;28;20101;-80
2022/02/15 06:21:25;;;;;;;91.07;82.38;;;;;;;-2.07;100.00;101760.47;4994143;28;20129;-80
2022/02/15 06:23:52;;;;;;;96.65;87.50;;;;;;;-2.19;100.00;101768.22;4992870;28;20121;-81
2022/02/15 06:26:19;;;;;;;90.13;81.68;;;;;;;-2.21;100.00;101780.50;4992056;28;20530;-80
2022/02/15 06:28:46;;;;;;;92.78;84.25;;;;;;;-1.65;100.00;101766.44;4991299;28;20050;-79
2022/02/15 06:31:14;;;;;;;92.85;83.93;;;;;;;-1.62;100.00;101771.44;4992019;28;20474;-81
2022/02/15 06:33:40;;;;;;;92.78;83.47;;;;;;;-1.46;100.00;101781.66;4984930;28;20059;-81
2022/02/15 06:36:09;;;;;;;101.35;90.97;;;;;;;-1.45;100.00;101772.94;4988114;28;20054;-80
2022/02/15 06:38:39;;;;;;;104.78;95.45;;;;;;;4.17;100.00;101765.66;4991787;28;20121;-81
2022/02/15 06:41:06;;;;;;;97.00;89.05;;;;;;;2.19;100.00;101740.69;4994429;28;20042;-78
2022/02/15 06:43:33;;;;;;;106.25;96.30;;;;;;;-0.76;100.00;101736.91;4996562;28;20587;-81
2022/02/15 06:45:59;;;;;;;102.25;92.75;;;;;;;-0.97;100.00;101741.88;4989859;28;20046;-82
2022/02/15 06:48:26;;;;;;;103.15;94.10;;;;;;;-1.02;100.00;101745.72;4990925;28;20050;-82
2022/02/15 06:50:53;;;;;;;114.07;103.25;;;;;;;-0.95;100.00;101747.78;4989734;28;20454;-82
2022/02/15 06:53:20;;;;;;;110.75;99.45;;;;;;;-1.11;100.00;101747.19;4996469;28;20050;-80
2022/02/15 06:55:49;;;;;;;97.97;87.25;;;;;;;-1.04;100.00;101745.81;4993736;28;20113;-80
2022/02/15 06:58:15;;;;;;;91.72;82.20;;;;;;;-0.96;100.00;101747.91;4996151;28;20482;-79
2022/02/15 07:00:42;;;;;;;101.00;90.30;;;;;;;-0.75;100.00;101749.03;4997652;28;20051;-82
2022/02/15 07:03:09;;;;;;;99.10;88.88;;;;;;;-0.78;100.00;101759.69;4987702;28;20047;-81
2022/02/15 07:05:36;;;;;;;99.18;89.65;;;;;;;-0.57;100.00;101761.75;4994224;28;20051;-82
2022/02/15 07:08:04;;;;;;;109.50;97.82;;;;;;;-0.30;100.00;101758.94;4992491;28;20042;-80
2022/02/15 07:10:32;;;;;;;97.57;87.97;;;;;;;-0.29;100.00;101753.59;4989956;28;20517;-80
2022/02/15 07:13:01;;;;;;;94.35;85.57;;;;;;;-0.41;100.00;101759.69;4993266;28;20050;-81
2022/02/15 07:15:27;;;;;;;96.75;88.15;;;;;;;-0.04;100.00;101752.66;4982356;28;20050;-80
2022/02/15 07:17:54;;;;;;;97.80;88.88;;;;;;;-0.07;100.00;101754.66;4998580;28;20050;-80
2022/02/15 07:20:21;;;;;;;94.28;85.90;;;;;;;-0.28;100.00;101754.44;4994513;28;20058;-81
2022/02/15 07:22:48;;;;;;;93.03;84.55;;;;;;;-0.34;100.00;101741.81;4997582;28;20125;-80
2022/02/15 07:25:14;;;;;;;100.70;91.55;;;;;;;0.29;100.00;101753.75;4988013;28;20046;-82
2022/02/15 07:27:41;;;;;;;92.57;83.95;;;;;;;0.45;100.00;101750.81;4999180;28;20065;-80
2022/02/15 07:30:10;;;;;;;92.03;83.35;;;;;;;0.49;100.00;101757.50;4995142;28;20050;-80
2022/02/15 07:32:36;;;;;;;102.75;93.30;;;;;;;0.54;100.00;101763.19;4999020;28;20057;-80
2022/02/15 07:35:04;;;;;;;102.95;94.05;;;;;;;0.71;100.00;101758.50;5001214;28;20073;-80
2022/02/15 07:37:31;;;;;;;93.18;84.97;;;;;;;0.63;100.00;101757.28;4997440;28;20054;-80
2022/02/15 07:39:58;;;;;;;87.30;79.82;;;;;;;0.74;100.00;101755.66;4988578;28;20142;-78
2022/02/15 07:42:25;;;;;;;100.43;91.70;;;;;;;1.28;100.00;101747.13;4993025;28;20046;-82
2022/02/15 07:44:52;;;;;;;104.85;95.45;;;;;;;2.03;100.00;101738.50;5000106;28;20047;-79
2022/02/15 07:47:22;;;;;;;97.70;88.88;;;;;;;2.49;100.00;101737.31;4998599;28;20050;-79
2022/02/15 07:49:48;;;;;;;96.25;87.93;;;;;;;3.24;100.00;101745.81;4999813;28;20051;-81
2022/02/15 07:52:16;;;;;;;106.60;97.38;;;;;;;4.54;100.00;101745.56;5001663;28;20050;-79
2022/02/15 07:54:43;;;;;;;92.90;85.28;;;;;;;4.17;100.00;101737.53;5002054;28;20050;-82
2022/02/15 07:57:10;;;;;;;101.60;93.20;;;;;;;5.25;100.00;101736.31;4997787;28;20474;-80
2022/02/15 07:59:36;;;;;;;93.43;85.82;;;;;;;5.12;100.00;101725.28;5005523;28;20050;-79
2022/02/15 08:02:04;;;;;;;94.20;85.85;;;;;;;4.78;100.00;101731.94;4998680;28;20094;-79
2022/02/15 08:04:32;;;;;;;89.82;82.53;;;;;;;5.01;100.00;101729.75;4993829;28;20054;-81
2022/02/15 08:07:00;;;;;;;90.25;83.15;;;;;;;5.84;100.00;101734.16;4988689;28;20051;-80
2022/02/15 08:09:27;;;;;;;83.88;77.55;;;;;;;5.59;100.00;101735.72;4995504;28;20475;-79
2022/02/15 08:11:57;;;;;;;91.82;84.78;;;;;;;6.33;100.00;101732.81;4987625;28;20078;-81
2022/02/15 08:14:25;;;;;;;91.35;84.35;;;;;;;6.93;100.00;101729.41;4992369;28;20054;-80
2022/02/15 08:16:53;;;;;;;85.38;78.93;;;;;;;7.21;100.00;101726.56;4989856;28;20134;-79
2022/02/15 08:19:25;;;;;;;92.03;84.78;;;;;;;7.48;100.00;101730.78;4988889;28;20078;-79
2022/02/15 08:21:54;;;;;;;97.65;90.00;;;;;;;8.07;100.00;101722.78;5005147;28;20103;-81
2022/02/15 08:24:21;;;;;;;92.85;85.22;;;;;;;7.87;100.00;101719.66;5002997;28;20046;-80
2022/02/15 08:26:48;;;;;;;92.38;84.72;;;;;;;8.00;100.00;101728.72;5000641;28;20046;-81
2022/02/15 08:29:14;;;;;;;96.50;88.68;;;;;;;5.65;100.00;101724.56;4996973;28;20482;-80
2022/02/15 08:31:41;;;;;;;99.88;91.32;;;;;;;7.10;100.00;101720.56;4998551;28;20121;-80
2022/02/15 08:34:08;;;;;;;91.75;84.35;;;;;;;7.53;100.00;101717.91;5003309;28;20054;-81
2022/02/15 08:36:35;;;;;;;89.63;82.63;;;;;;;8.14;100.00;101706.09;4997983;28;20459;-81
2022/02/15 08:39:05;;;;;;;91.45;83.93;;;;;;;8.73;100.00;101705.03;5003106;28;20046;-80
2022/02/15 08:41:32;;;;;;;95.03;88.03;;;;;;;8.76;100.00;101702.88;4999030;28;20711;-80
2022/02/15 08:43:59;;;;;;;86.85;80.63;;;;;;;8.38;100.00;101694.69;4999764;28;20046;-81
2022/02/15 08:46:27;;;;;;;91.80;84.70;;;;;;;9.55;100.00;101701.03;5000622;28;20114;-80
2022/02/15 08:48:54;;;;;;;89.05;82.75;;;;;;;9.19;100.00;101690.13;5005612;28;20077;-82
2022/02/15 08:51:22;;;;;;;89.72;82.35;;;;;;;9.62;100.00;101694.06;4996587;28;20070;-80
2022/02/15 08:53:50;;;;;;;89.07;81.57;;;;;;;9.09;100.00;101690.34;4985728;28;20117;-81
2022/02/15 08:56:20;;;;;;;88.05;80.75;;;;;;;9.29;100.00;101685.47;4990438;28;20156;-80
2022/02/15 08:58:48;;;;;;;84.18;77.38;;;;;;;7.72;100.00;101680.59;4997511;28;20142;-80
2022/02/15 09:01:15;;;;;;;85.65;78.70;;;;;;;8.67;100.00;101680.88;4989717;28;20047;-80
2022/02/15 09:03:42;;;;;;;86.03;79.22;;;;;;;8.61;100.00;101678.91;4995037;28;20063;-79
2022/02/15 09:06:10;;;;;;;84.75;77.95;;;;;;;9.13;100.00;101696.94;4993994;28;20128;-82
2022/02/15 09:08:37;;;;;;;84.45;78.07;;;;;;;9.37;100.00;101698.66;4993847;28;20073;-82
2022/02/15 09:11:04;;;;;;;91.03;83.82;;;;;;;8.84;100.00;101694.91;5002804;28;20046;-80
2022/02/15 09:13:33;;;;;;;89.10;82.20;;;;;;;11.50;100.00;101693.13;5002377;28;20073;-80
2022/02/15 09:16:00;;;;;;;91.10;84.68;;;;;;;11.90;96.93;101673.09;4998651;28;20129;-81
2022/02/15 09:18:27;;;;;;;105.45;95.95;;;;;;;12.08;88.32;101672.66;4997602;28;20494;-81
2022/02/15 09:20:54;;;;;;;89.72;83.15;;;;;;;12.56;91.68;101668.28;4995695;28;20109;-82
2022/02/15 09:23:20;;;;;;;92.95;85.95;;;;;;;12.83;79.70;101669.25;4992226;28;20046;-80
2022/02/15 09:25:47;;;;;;;95.53;88.47;;;;;;;12.95;76.48;101666.84;5009347;28;20042;-80
2022/02/15 09:28:14;;;;;;;93.32;85.60;;;;;;;14.12;76.48;101667.50;4998921;28;20050;-81
2022/02/15 09:30:42;;;;;;;95.70;88.75;;;;;;;12.64;67.37;101669.13;4992961;28;20038;-81
2022/02/15 09:33:09;;;;;;;93.13;86.38;;;;;;;13.24;72.54;101680.91;4994996;28;20046;-81
2022/02/15 09:35:37;;;;;;;91.45;85.15;;;;;;;12.77;69.55;101671.91;4998356;28;20050;-81
2022/02/15 09:38:04;;;;;;;92.00;85.53;;;;;;;13.17;70.20;101666.72;5008906;28;20047;-78
2022/02/15 09:40:31;;;;;;;91.38;84.65;;;;;;;13.71;67.95;101666.69;4998492;28;20050;-80
2022/02/15 09:42:58;;;;;;;96.50;89.60;;;;;;;13.67;66.23;101667.28;4991849;28;20486;-79
2022/02/15 09:45:25;;;;;;;97.45;90.53;;;;;;;14.18;67.49;101662.16;5007097;28;20050;-81
2022/02/15 09:47:56;;;;;;;93.90;87.00;;;;;;;13.55;68.82;101655.56;5003579;28;20054;-79
2022/02/15 09:50:23;;;;;;;95.90;88.90;;;;;;;13.75;67.67;101646.56;4991653;28;20053;-79
2022/02/15 09:52:51;;;;;;;95.72;88.60;;;;;;;13.89;66.41;101641.25;4994643;28;20047;-80
2022/02/15 09:55:18;;;;;;;96.18;88.97;;;;;;;14.85;63.60;101636.13;4996001;28;20054;-80
2022/02/15 09:57:45;;;;;;;101.82;94.35;;;;;;;15.05;64.60;101632.56;4994434;28;20452;-79
2022/02/15 10:00:13;;;;;;;99.55;92.40;;;;;;;12.40;61.07;101631.28;5003961;28;20054;-80
2022/02/15 10:02:41;;;;;;;96.15;89.20;;;;;;;13.69;62.36;101620.66;4995140;28;20046;-79
2022/02/15 10:05:14;;;;;;;95.28;88.30;;;;;;;12.87;62.25;101626.19;4996168;28;20466;-80
2022/02/15 10:07:47;;;;;;;101.25;93.78;;;;;;;10.99;69.45;101627.53;4993688;28;20065;-80
2022/02/15 10:10:13;;;;;;;;;;;;;;;12.76;69.81;101619.56;4993117;28;20121;-79
2022/02/15 10:12:40;;;;;;;94.10;87.18;;;;;;;12.92;68.08;101616.59;4996166;28;19922;-79
2022/02/15 10:15:10;;;;;;;100.20;92.93;;;;;;;12.43;69.33;101612.22;4988717;28;20051;-79
2022/02/15 10:17:38;;;;;;;102.32;94.32;;;;;;;12.43;72.88;101616.75;4996881;28;20046;-79
2022/02/15 10:20:06;;;;;;;93.20;85.82;;;;;;;11.19;77.10;101603.81;4998486;28;20110;-79
2022/02/15 10:22:39;;;;;;;92.30;85.68;;;;;;;13.92;70.67;101600.78;4989009;28;20027;-79
2022/02/15 10:25:07;;;;;;;95.28;88.47;;;;;;;14.88;63.75;101592.09;5004642;28;20073;-79
2022/02/15 10:27:35;;;;;;;97.20;90.05;;;;;;;15.91;62.01;101591.81;5004903;28;20034;-81
2022/02/15 10:30:03;;;;;;;98.07;90.88;;;;;;;13.97;65.38;101590.28;4992953;28;20054;-80
2022/02/15 10:32:30;;;;;;;98.82;91.55;;;;;;;15.95;60.41;101594.91;5000638;28;20074;-79
2022/02/15 10:34:59;;;;;;;104.18;96.57;;;;;;;16.44;57.67;101593.16;5001071;28;20050;-81
2022/02/15 10:37:32;;;;;;;97.47;90.22;;;;;;;16.17;57.43;101579.22;5004343;28;20057;-80
2022/02/15 10:40:04;;;;;;;100.93;93.22;;;;;;;16.41;57.27;101586.38;4997193;28;20050;-80
2022/02/15 10:42:32;;;;;;;110.10;101.90;;;;;;;16.80;55.31;101584.31;5006043;28;20529;-79
2022/02/15 10:45:00;;;;;;;107.25;99.32;;;;;;;16.41;56.38;101589.06;5011218;28;20050;-82
2022/02/15 10:47:29;;;;;;;97.78;90.50;;;;;;;17.30;54.07;101592.06;4999841;28;20038;-80
2022/02/15 10:49:59;;;;;;;101.15;93.93;;;;;;;17.53;54.27;101587.81;5007262;28;20081;-79
2022/02/15 10:52:27;;;;;;;97.55;90.55;;;;;;;14.70;54.95;101579.41;4994036;28;20057;-79
2022/02/15 10:54:55;;;;;;;96.57;89.63;;;;;;;13.95;58.07;101582.47;4996916;28;20054;-80
2022/02/15 10:57:23;;;;;;;95.63;88.53;;;;;;;15.85;61.29;101576.63;5001233;28;20046;-79
2022/02/15 10:59:53;;;;;;;91.63;84.78;;;;;;;14.47;57.27;101582.56;5008745;28;20077;-79
2022/02/15 11:02:23;;;;;;;91.82;84.70;;;;;;;15.00;60.60;101578.88;5000394;28;20084;-80
2022/02/15 11:04:51;;;;;;;100.97;93.28;;;;;;;14.54;62.18;101578.03;4996875;28;20078;-79
2022/02/15 11:07:19;;;;;;;97.45;89.95;;;;;;;15.09;61.62;101574.91;4998102;28;20073;-81